Time;durP1;ratioP1;P1;durP2;ratioP2;P2;SDS_P1;SDS_P2;PMS_P1;PMS_P2;Temp;Humidity;BMP_temperature;BMP_pressure;BME280_temperature;BME280_humidity;BME280_pressure;Samples;Min_cycle;Max_cycle;Signal;HPM_P1;HPM_P2
2023/10/03 00:01:19;;;;;;;36.45;15.52;;;20.80;56.10;;;;;;5037480;28;20049;-38
2023/10/03 00:03:48;;;;;;;37.75;15.13;;;20.90;56.10;;;;;;5037809;28;20056;-37
2023/10/03 00:06:15;;;;;;;37.22;15.45;;;20.80;56.10;;;;;;5039947;28;20057;-35
2023/10/03 00:08:44;;;;;;;39.88;16.35;;;20.80;56.10;;;;;;5039058;28;20485;-36
2023/10/03 00:11:18;;;;;;;34.65;14.60;;;20.80;56.10;;;;;;5035931;28;20040;-35
2023/10/03 00:13:46;;;;;;;38.78;16.40;;;20.80;56.00;;;;;;5038598;28;20970;-35
2023/10/03 00:16:14;;;;;;;35.05;15.95;;;20.80;56.10;;;;;;5037083;28;20053;-36
2023/10/03 00:18:41;;;;;;;36.65;15.23;;;20.80;56.10;;;;;;5038391;28;20534;-35
2023/10/03 00:21:08;;;;;;;36.92;15.88;;;20.80;56.10;;;;;;5036122;28;20057;-35
2023/10/03 00:23:35;;;;;;;37.38;15.50;;;20.70;56.00;;;;;;5040770;28;20060;-38
2023/10/03 00:26:04;;;;;;;34.78;15.25;;;20.80;56.10;;;;;;5041279;28;20079;-37
2023/10/03 00:28:34;;;;;;;33.50;15.65;;;20.70;56.10;;;;;;5041262;28;20056;-36
2023/10/03 00:31:03;;;;;;;40.63;17.02;;;20.70;56.20;;;;;;5040314;28;20045;-36
2023/10/03 00:33:30;;;;;;;35.53;15.50;;;20.70;56.20;;;;;;5040934;28;20393;-36
2023/10/03 00:35:57;;;;;;;41.28;16.42;;;20.70;56.20;;;;;;5042260;28;20493;-36
2023/10/03 00:38:24;;;;;;;39.10;16.50;;;20.70;56.30;;;;;;5042115;28;20041;-36
2023/10/03 00:40:55;;;;;;;37.45;15.20;;;20.70;56.30;;;;;;5041056;28;20049;-36
2023/10/03 00:43:23;;;;;;;39.20;15.77;;;20.70;56.40;;;;;;5040894;28;20045;-36
2023/10/03 00:45:51;;;;;;;39.38;16.27;;;20.70;56.40;;;;;;5041822;28;20057;-37
2023/10/03 00:48:20;;;;;;;39.28;16.25;;;20.70;56.50;;;;;;5041829;28;20064;-35
2023/10/03 00:50:48;;;;;;;34.15;15.15;;;20.70;56.50;;;;;;5039111;28;20057;-35
2023/10/03 00:53:16;;;;;;;37.22;15.98;;;20.70;56.50;;;;;;5040848;28;20052;-35
2023/10/03 00:55:44;;;;;;;35.22;15.32;;;20.70;56.60;;;;;;5040837;28;20056;-36
2023/10/03 00:58:23;;;;;;;39.20;16.23;;;20.70;56.60;;;;;;5041165;28;20048;-38
2023/10/03 01:00:54;;;;;;;39.15;16.40;;;20.70;56.70;;;;;;5039551;28;20045;-38
2023/10/03 01:03:30;;;;;;;43.35;16.70;;;20.70;56.60;;;;;;5039945;28;20049;-39
2023/10/03 01:05:59;;;;;;;36.08;15.75;;;20.70;56.70;;;;;;5037990;28;20744;-38
2023/10/03 01:08:27;;;;;;;40.50;15.73;;;20.70;57.20;;;;;;5040974;28;20053;-39
2023/10/03 01:10:55;;;;;;;39.22;15.07;;;20.80;56.80;;;;;;5041617;28;20060;-39
2023/10/03 01:13:24;;;;;;;41.05;16.63;;;20.70;56.70;;;;;;5040158;28;20057;-38
2023/10/03 01:15:53;;;;;;;31.92;15.77;;;20.70;56.70;;;;;;5039832;28;20053;-38
2023/10/03 01:18:21;;;;;;;38.80;15.70;;;20.80;56.70;;;;;;5039352;28;20052;-40
2023/10/03 01:20:52;;;;;;;39.08;16.73;;;20.80;56.80;;;;;;5040693;28;20061;-39
2023/10/03 01:23:21;;;;;;;40.85;16.88;;;20.80;56.80;;;;;;5039159;28;20060;-40
2023/10/03 01:25:48;;;;;;;35.40;16.35;;;20.80;56.80;;;;;;5040245;28;20053;-39
2023/10/03 01:28:16;;;;;;;36.45;14.93;;;20.80;56.70;;;;;;5041434;28;20056;-39
2023/10/03 01:30:43;;;;;;;36.70;14.95;;;20.90;56.80;;;;;;5039651;28;20052;-39
2023/10/03 01:33:12;;;;;;;33.20;15.10;;;20.90;56.70;;;;;;5038348;28;20072;-39
2023/10/03 01:35:39;;;;;;;38.70;16.45;;;20.90;56.70;;;;;;5039038;28;20417;-39
2023/10/03 01:38:06;;;;;;;36.85;16.00;;;20.90;56.70;;;;;;5038637;28;20052;-39
2023/10/03 01:40:36;;;;;;;36.35;16.08;;;21.00;56.60;;;;;;5040852;28;20060;-40
2023/10/03 01:43:03;;;;;;;37.10;16.13;;;21.00;56.60;;;;;;5040672;28;20497;-39
2023/10/03 01:45:32;;;;;;;39.78;15.45;;;21.00;56.60;;;;;;5040075;28;20059;-38
2023/10/03 01:48:00;;;;;;;34.78;15.43;;;21.10;56.60;;;;;;5039701;28;20068;-38
2023/10/03 01:50:29;;;;;;;36.03;15.05;;;21.10;56.50;;;;;;5039507;28;20053;-38
2023/10/03 01:52:57;;;;;;;40.33;17.05;;;21.10;56.50;;;;;;5039918;28;20049;-38
2023/10/03 01:55:24;;;;;;;36.88;16.30;;;21.20;56.50;;;;;;5039859;28;20056;-39
2023/10/03 01:57:53;;;;;;;32.80;14.43;;;21.20;56.40;;;;;;5041094;28;20489;-39
2023/10/03 02:00:25;;;;;;;35.00;14.60;;;21.20;56.30;;;;;;5037561;28;20079;-39
2023/10/03 02:02:53;;;;;;;35.08;14.88;;;21.30;56.30;;;;;;5037376;28;20057;-39
2023/10/03 02:05:23;;;;;;;35.33;15.40;;;21.30;56.20;;;;;;5039464;28;20064;-39
2023/10/03 02:07:52;;;;;;;38.58;16.33;;;21.30;56.10;;;;;;5039762;28;20485;-39
2023/10/03 02:10:19;;;;;;;33.92;14.55;;;21.40;56.10;;;;;;5040507;28;20056;-39
2023/10/03 02:12:49;;;;;;;44.25;16.90;;;21.40;56.00;;;;;;5039230;28;20040;-38
2023/10/03 02:15:21;;;;;;;38.47;15.30;;;21.40;56.00;;;;;;5040831;28;20054;-39
2023/10/03 02:17:50;;;;;;;31.27;14.77;;;21.50;56.00;;;;;;5038185;28;20488;-39
2023/10/03 02:20:20;;;;;;;31.85;15.30;;;21.50;55.90;;;;;;5038851;28;20057;-40
2023/10/03 02:22:55;;;;;;;34.10;15.70;;;21.50;55.80;;;;;;5038982;28;20048;-39
2023/10/03 02:25:23;;;;;;;38.40;15.18;;;21.50;55.80;;;;;;5039754;28;20068;-39
2023/10/03 02:27:53;;;;;;;34.60;15.57;;;21.50;56.20;;;;;;5038634;28;20064;-39
2023/10/03 02:30:25;;;;;;;37.10;15.48;;;21.50;55.80;;;;;;5040127;28;20063;-39
2023/10/03 02:32:53;;;;;;;36.72;15.45;;;21.50;55.70;;;;;;5035731;28;20056;-39
2023/10/03 02:35:23;;;;;;;35.58;15.27;;;21.60;55.70;;;;;;5038698;28;20049;-39
2023/10/03 02:37:52;;;;;;;31.75;14.60;;;21.60;55.70;;;;;;5040404;28;20060;-39
2023/10/03 02:40:22;;;;;;;32.53;14.88;;;21.60;55.70;;;;;;5040576;28;20053;-39
2023/10/03 02:42:51;;;;;;;36.92;15.77;;;21.60;55.70;;;;;;5036212;28;20049;-39
2023/10/03 02:45:22;;;;;;;34.13;15.98;;;21.60;55.60;;;;;;5038444;28;20058;-39
2023/10/03 02:47:53;;;;;;;33.65;14.95;;;21.60;55.60;;;;;;5036881;28;20409;-39
2023/10/03 02:50:21;;;;;;;32.58;15.68;;;21.60;55.60;;;;;;5034900;28;20068;-39
2023/10/03 02:52:48;;;;;;;34.88;15.65;;;21.60;55.50;;;;;;5039230;28;20453;-39
2023/10/03 02:55:17;;;;;;;32.05;15.73;;;21.60;55.50;;;;;;5039981;28;20390;-39
2023/10/03 02:57:44;;;;;;;35.60;14.70;;;21.60;55.50;;;;;;5037177;28;20056;-39
2023/10/03 03:00:13;;;;;;;34.50;14.43;;;21.60;55.50;;;;;;5038724;28;20045;-39
2023/10/03 03:02:42;;;;;;;32.65;14.02;;;21.60;55.50;;;;;;5038724;28;20374;-41
2023/10/03 03:05:15;;;;;;;34.42;14.00;;;21.60;55.50;;;;;;5039647;28;21316;-39
2023/10/03 03:07:45;;;;;;;38.85;14.23;;;21.60;55.50;;;;;;5041399;28;20770;-39
2023/10/03 03:10:14;;;;;;;34.78;15.00;;;21.60;55.50;;;;;;5038909;28;20531;-39
2023/10/03 03:12:43;;;;;;;30.77;13.90;;;21.60;55.50;;;;;;5037058;28;20512;-39
2023/10/03 03:15:17;;;;;;;33.47;15.18;;;21.60;55.50;;;;;;5038017;28;20490;-39
2023/10/03 03:17:47;;;;;;;31.48;14.68;;;21.50;55.50;;;;;;5038240;28;20045;-39
2023/10/03 03:20:19;;;;;;;33.13;14.05;;;21.50;55.40;;;;;;5038230;28;20053;-39
2023/10/03 03:22:48;;;;;;;30.88;13.95;;;21.50;55.30;;;;;;5035632;28;20048;-39
2023/10/03 03:25:24;;;;;;;30.67;14.15;;;21.50;55.40;;;;;;5035515;28;20056;-40
2023/10/03 03:27:54;;;;;;;29.17;14.02;;;21.50;55.30;;;;;;5039951;28;20053;-39
2023/10/03 03:30:34;;;;;;;33.53;15.48;;;21.50;55.30;;;;;;5036271;28;20056;-39
2023/10/03 03:33:06;;;;;;;33.63;14.50;;;21.50;55.30;;;;;;5037008;28;20049;-39
2023/10/03 03:35:41;;;;;;;30.15;14.80;;;21.50;55.30;;;;;;5038223;28;20056;-39
2023/10/03 03:38:15;;;;;;;32.55;14.45;;;21.50;55.40;;;;;;5039580;28;20053;-39
2023/10/03 03:40:45;;;;;;;29.50;13.68;;;21.50;55.40;;;;;;5037724;28;20053;-39
2023/10/03 03:43:16;;;;;;;30.73;13.80;;;21.50;55.40;;;;;;5035952;28;20049;-39
2023/10/03 03:45:44;;;;;;;34.95;13.82;;;21.50;55.50;;;;;;5038302;28;20060;-39
2023/10/03 03:48:13;;;;;;;28.92;13.02;;;21.50;55.50;;;;;;5038913;28;20049;-39
2023/10/03 03:50:42;;;;;;;29.80;13.23;;;21.50;55.50;;;;;;5036637;28;20064;-40
2023/10/03 03:53:10;;;;;;;34.13;13.32;;;21.40;55.40;;;;;;5036098;28;20049;-39
2023/10/03 03:55:38;;;;;;;33.00;14.25;;;21.40;55.30;;;;;;5037494;28;20048;-39
2023/10/03 03:58:11;;;;;;;31.83;13.23;;;21.40;55.30;;;;;;5042394;28;20045;-39
2023/10/03 04:00:39;;;;;;;31.15;12.77;;;21.40;55.40;;;;;;5040472;28;20057;-39
2023/10/03 04:03:08;;;;;;;31.75;14.65;;;21.40;55.30;;;;;;5041687;28;20422;-39
2023/10/03 04:05:36;;;;;;;27.73;12.90;;;21.40;55.40;;;;;;5042254;28;20049;-39
2023/10/03 04:08:07;;;;;;;31.25;14.10;;;21.40;55.30;;;;;;5043032;28;20064;-39
2023/10/03 04:10:36;;;;;;;30.35;13.35;;;21.40;55.30;;;;;;5042443;28;20057;-39
2023/10/03 04:13:06;;;;;;;33.60;13.90;;;21.40;55.30;;;;;;5040388;28;20045;-40
2023/10/03 04:15:34;;;;;;;25.60;12.65;;;21.40;55.30;;;;;;5039996;28;20057;-39
2023/10/03 04:18:01;;;;;;;30.13;13.05;;;21.40;55.40;;;;;;5037848;28;20048;-39
2023/10/03 04:20:31;;;;;;;28.60;12.77;;;21.40;55.40;;;;;;5040995;28;20065;-39
2023/10/03 04:22:59;;;;;;;27.75;13.18;;;21.40;55.40;;;;;;5037601;28;20048;-39
2023/10/03 04:25:28;;;;;;;29.42;13.73;;;21.40;55.50;;;;;;5041003;28;20449;-39
2023/10/03 04:27:56;;;;;;;28.90;13.35;;;21.40;55.40;;;;;;5042826;28;21132;-39
2023/10/03 04:30:25;;;;;;;34.65;14.00;;;21.40;55.50;;;;;;5042690;28;20056;-36
2023/10/03 04:32:54;;;;;;;28.70;12.65;;;21.40;55.50;;;;;;5039694;28;20060;-36
2023/10/03 04:35:23;;;;;;;31.60;13.27;;;21.40;55.40;;;;;;5039770;28;20057;-37
2023/10/03 04:37:52;;;;;;;27.33;12.95;;;21.40;55.40;;;;;;5042009;28;20064;-38
2023/10/03 04:40:22;;;;;;;29.23;12.75;;;21.40;55.40;;;;;;5042224;28;20059;-36
2023/10/03 04:42:52;;;;;;;29.52;12.32;;;21.40;55.40;;;;;;5042209;28;20049;-36
2023/10/03 04:45:20;;;;;;;28.38;13.07;;;21.40;55.40;;;;;;5040167;28;20064;-37
2023/10/03 04:47:48;;;;;;;29.45;13.80;;;21.40;55.40;;;;;;5039990;28;20060;-35
2023/10/03 04:50:19;;;;;;;30.70;13.43;;;21.40;55.40;;;;;;5039803;28;20060;-36
2023/10/03 04:52:48;;;;;;;31.95;13.00;;;21.30;55.30;;;;;;5037578;28;20508;-36
2023/10/03 04:55:17;;;;;;;26.65;12.35;;;21.30;55.30;;;;;;5040309;28;20064;-38
2023/10/03 04:57:45;;;;;;;29.60;13.13;;;21.30;55.40;;;;;;5041543;28;20155;-36
2023/10/03 05:00:16;;;;;;;25.65;12.75;;;21.30;55.40;;;;;;5040233;28;20083;-35
2023/10/03 05:02:46;;;;;;;27.83;12.48;;;21.30;55.40;;;;;;5038182;28;20049;-36
2023/10/03 05:05:18;;;;;;;26.33;12.07;;;21.30;55.50;;;;;;5040014;28;20056;-38
2023/10/03 05:07:47;;;;;;;32.63;13.02;;;21.30;55.40;;;;;;5040217;28;20052;-35
2023/10/03 05:10:17;;;;;;;28.15;13.18;;;21.30;55.40;;;;;;5041891;28;20401;-36
2023/10/03 05:12:46;;;;;;;25.80;11.60;;;21.20;55.40;;;;;;5040836;28;20132;-36
2023/10/03 05:15:16;;;;;;;26.38;12.73;;;21.20;55.40;;;;;;5038788;28;20053;-35
2023/10/03 05:17:44;;;;;;;30.00;12.93;;;21.20;55.50;;;;;;5039842;28;20060;-35
2023/10/03 05:20:14;;;;;;;28.42;13.10;;;21.20;55.50;;;;;;5038003;28;20049;-37
2023/10/03 05:22:42;;;;;;;31.83;12.93;;;21.20;55.50;;;;;;5038166;28;20068;-36
2023/10/03 05:25:11;;;;;;;24.25;12.38;;;21.20;55.50;;;;;;5040879;28;20063;-37
2023/10/03 05:27:40;;;;;;;26.25;12.20;;;21.20;55.60;;;;;;5038920;28;20053;-36
2023/10/03 05:30:09;;;;;;;31.88;12.75;;;21.20;55.60;;;;;;5039645;28;20049;-35
2023/10/03 05:32:38;;;;;;;24.73;11.88;;;21.10;55.50;;;;;;5037457;28;20064;-37
2023/10/03 05:35:07;;;;;;;28.13;11.85;;;21.20;55.60;;;;;;5039919;28;20505;-36
2023/10/03 05:37:35;;;;;;;25.23;11.25;;;21.20;55.70;;;;;;5039606;28;20060;-38
2023/10/03 05:40:11;;;;;;;31.33;13.05;;;21.20;55.70;;;;;;5039592;28;20049;-40
2023/10/03 05:42:41;;;;;;;27.88;12.68;;;21.20;55.70;;;;;;5036491;28;20413;-39
2023/10/03 05:45:12;;;;;;;28.48;12.35;;;21.10;55.60;;;;;;5039426;28;20049;-39
2023/10/03 05:47:42;;;;;;;31.25;12.48;;;21.10;55.60;;;;;;5040154;28;20049;-40
2023/10/03 05:50:10;;;;;;;31.60;12.73;;;21.10;55.60;;;;;;5038195;28;20055;-40
2023/10/03 05:52:37;;;;;;;27.38;12.55;;;21.10;55.60;;;;;;5037608;28;20056;-40
2023/10/03 05:55:06;;;;;;;26.42;11.98;;;21.10;55.60;;;;;;5043108;28;20056;-39
2023/10/03 05:57:33;;;;;;;22.85;10.23;;;21.10;55.60;;;;;;5042465;28;20408;-39
2023/10/03 06:00:01;;;;;;;22.23;10.07;;;21.10;55.70;;;;;;5042597;28;20056;-38
2023/10/03 06:02:28;;;;;;;20.23;9.43;;;21.10;55.70;;;;;;5040188;28;20140;-39
2023/10/03 06:04:58;;;;;;;20.88;9.30;;;21.10;55.60;;;;;;5041752;28;20048;-38
2023/10/03 06:07:25;;;;;;;20.13;9.70;;;21.10;55.70;;;;;;5042318;28;20067;-39
2023/10/03 06:09:55;;;;;;;21.15;8.85;;;21.20;55.70;;;;;;5042563;28;20060;-37
2023/10/03 06:12:23;;;;;;;19.25;9.75;;;21.20;55.70;;;;;;5041415;28;20053;-39
2023/10/03 06:14:50;;;;;;;22.27;9.88;;;21.30;55.60;;;;;;5040847;28;20057;-38
2023/10/03 06:17:18;;;;;;;18.98;9.20;;;21.30;55.60;;;;;;5040471;28;20064;-38
2023/10/03 06:19:45;;;;;;;19.20;8.95;;;21.30;55.60;;;;;;5040707;28;20421;-38
2023/10/03 06:22:14;;;;;;;24.40;10.00;;;21.40;55.60;;;;;;5042845;28;20485;-38
2023/10/03 06:24:41;;;;;;;21.67;9.55;;;21.40;55.40;;;;;;5040599;28;20516;-41
2023/10/03 06:27:10;;;;;;;19.15;9.75;;;21.50;55.40;;;;;;5041353;28;20053;-39
2023/10/03 06:29:40;;;;;;;22.30;9.93;;;21.50;55.30;;;;;;5041228;28;20059;-38
2023/10/03 06:32:07;;;;;;;21.50;9.70;;;21.50;55.30;;;;;;5040624;28;20056;-38
2023/10/03 06:34:34;;;;;;;24.25;9.35;;;21.60;55.20;;;;;;5040888;28;20053;-39
2023/10/03 06:37:04;;;;;;;19.75;9.10;;;21.60;55.10;;;;;;5042775;28;20485;-40
2023/10/03 06:39:34;;;;;;;23.05;10.40;;;21.70;55.10;;;;;;5039980;28;20547;-38
2023/10/03 06:42:02;;;;;;;20.73;10.15;;;21.70;54.90;;;;;;5042112;28;20060;-39
2023/10/03 06:44:29;;;;;;;20.10;9.35;;;21.70;54.80;;;;;;5040041;28;20060;-38
2023/10/03 06:46:56;;;;;;;22.27;9.85;;;21.70;54.70;;;;;;5040658;28;20053;-38
2023/10/03 06:49:24;;;;;;;21.95;8.90;;;21.80;54.70;;;;;;5042121;28;21596;-38
2023/10/03 06:51:52;;;;;;;21.00;9.23;;;21.90;54.60;;;;;;5041473;28;20077;-35
2023/10/03 06:54:20;;;;;;;22.10;9.50;;;21.90;54.60;;;;;;5039532;28;20045;-35
2023/10/03 06:56:49;;;;;;;18.70;9.10;;;21.90;54.50;;;;;;5041162;28;20056;-33
2023/10/03 06:59:17;;;;;;;20.77;9.45;;;21.90;54.40;;;;;;5040883;28;20048;-37
2023/10/03 07:01:44;;;;;;;22.13;9.52;;;21.90;54.40;;;;;;5039555;28;20052;-35
2023/10/03 07:04:12;;;;;;;18.55;9.05;;;22.00;54.40;;;;;;5041161;28;20053;-35
2023/10/03 07:06:39;;;;;;;20.65;9.75;;;22.00;54.30;;;;;;5040183;28;20064;-34
2023/10/03 07:09:10;;;;;;;18.35;8.95;;;22.00;54.70;;;;;;5040047;28;20056;-35
2023/10/03 07:11:38;;;;;;;23.25;9.23;;;22.00;54.20;;;;;;5040861;28;20056;-35
2023/10/03 07:14:12;;;;;;;19.48;8.90;;;22.10;54.20;;;;;;5039746;28;20048;-37
2023/10/03 07:16:41;;;;;;;22.90;9.63;;;22.00;54.10;;;;;;5040310;28;20053;-38
2023/10/03 07:19:10;;;;;;;17.67;8.57;;;22.10;54.10;;;;;;5040717;28;20067;-38
2023/10/03 07:21:38;;;;;;;19.30;9.48;;;22.10;54.10;;;;;;5040297;28;20056;-35
2023/10/03 07:24:06;;;;;;;16.65;8.27;;;22.10;54.00;;;;;;5039338;28;20052;-36
2023/10/03 07:26:33;;;;;;;20.23;9.48;;;22.10;53.90;;;;;;5040559;28;20053;-35
2023/10/03 07:29:02;;;;;;;21.63;8.38;;;22.10;53.90;;;;;;5041354;28;20053;-35
2023/10/03 07:31:31;;;;;;;21.67;9.50;;;22.10;53.80;;;;;;5040755;28;20500;-35
2023/10/03 07:33:59;;;;;;;21.65;8.52;;;22.20;53.90;;;;;;5040062;28;20409;-35
2023/10/03 07:36:27;;;;;;;23.52;10.10;;;22.20;53.90;;;;;;5040239;28;20064;-35
2023/10/03 07:38:54;;;;;;;18.27;8.15;;;22.20;53.80;;;;;;5040575;28;20052;-36
2023/10/03 07:41:21;;;;;;;22.77;8.65;;;22.20;53.90;;;;;;5040735;28;20485;-35
2023/10/03 07:43:48;;;;;;;21.25;9.63;;;22.20;53.90;;;;;;5041126;28;20071;-35
2023/10/03 07:46:23;;;;;;;23.38;9.23;;;22.20;54.00;;;;;;5040501;28;20060;-35
2023/10/03 07:48:53;;;;;;;19.80;9.02;;;22.20;53.90;;;;;;5039597;28;20052;-35
2023/10/03 07:51:23;;;;;;;22.17;8.52;;;22.20;54.00;;;;;;5038026;28;20060;-35
2023/10/03 07:53:51;;;;;;;20.38;8.63;;;22.20;53.90;;;;;;5039658;28;20061;-35
2023/10/03 07:56:25;;;;;;;23.40;8.80;;;22.20;53.90;;;;;;5040036;28;20055;-35
2023/10/03 07:58:54;;;;;;;23.43;8.77;;;22.20;53.90;;;;;;5040700;28;20061;-34
2023/10/03 08:01:24;;;;;;;19.05;8.88;;;22.20;53.90;;;;;;5036691;28;20065;-34
2023/10/03 08:03:54;;;;;;;21.23;9.23;;;22.20;53.90;;;;;;5030688;28;20046;-37
2023/10/03 08:06:23;;;;;;;19.65;9.48;;;22.30;54.00;;;;;;5036049;28;20405;-36
2023/10/03 08:08:52;;;;;;;18.33;9.45;;;22.30;53.90;;;;;;5036334;28;20417;-38
2023/10/03 08:11:22;;;;;;;16.80;8.02;;;22.30;54.00;;;;;;5037078;28;21551;-35
2023/10/03 08:13:50;;;;;;;18.08;8.23;;;22.30;54.10;;;;;;5036595;28;20056;-35
2023/10/03 08:16:21;;;;;;;17.50;8.80;;;22.30;54.00;;;;;;5036291;28;20060;-35
2023/10/03 08:18:57;;;;;;;15.93;8.35;;;22.30;54.00;;;;;;5038926;28;20056;-35
2023/10/03 08:21:27;;;;;;;18.13;7.97;;;22.30;54.00;;;;;;5034943;28;20060;-35
2023/10/03 08:23:55;;;;;;;18.73;8.82;;;22.40;54.00;;;;;;5036617;28;20061;-35
2023/10/03 08:26:22;;;;;;;19.67;9.45;;;22.40;54.00;;;;;;5038548;28;20053;-36
2023/10/03 08:28:59;;;;;;;17.58;8.05;;;22.40;54.50;;;;;;5039332;28;20103;-35
2023/10/03 08:31:27;;;;;;;20.20;8.95;;;22.40;54.00;;;;;;5037652;28;20464;-35
2023/10/03 08:33:55;;;;;;;16.67;8.13;;;22.40;54.00;;;;;;5036275;28;20536;-36
2023/10/03 08:36:23;;;;;;;19.85;8.13;;;22.40;53.90;;;;;;5038314;28;20057;-35
2023/10/03 08:38:51;;;;;;;17.65;8.40;;;22.50;54.00;;;;;;5036854;28;20544;-35
2023/10/03 08:41:23;;;;;;;19.73;8.52;;;22.40;54.00;;;;;;5035031;28;20746;-36
2023/10/03 08:43:54;;;;;;;16.45;7.88;;;22.40;54.10;;;;;;5038613;28;20053;-36
2023/10/03 08:46:26;;;;;;;17.30;8.18;;;22.50;54.20;;;;;;5041832;28;20278;-35
2023/10/03 08:49:00;;;;;;;17.40;8.38;;;22.50;54.10;;;;;;5040275;28;20049;-35
2023/10/03 08:51:32;;;;;;;15.20;7.70;;;22.50;54.00;;;;;;5040414;28;20505;-35
2023/10/03 08:54:10;;;;;;;18.52;8.00;;;22.50;54.00;;;;;;5040413;28;20060;-35
2023/10/03 08:56:40;;;;;;;15.82;8.00;;;22.50;54.00;;;;;;5041668;28;20057;-35
2023/10/03 08:59:08;;;;;;;16.88;7.55;;;22.50;54.30;;;;;;5041174;28;20524;-36
2023/10/03 09:01:39;;;;;;;22.75;8.68;;;22.60;54.10;;;;;;5039829;28;20055;-36
2023/10/03 09:04:15;;;;;;;15.90;7.30;;;22.60;54.10;;;;;;5040775;28;20444;-35
2023/10/03 09:06:44;;;;;;;18.05;8.73;;;22.60;54.10;;;;;;5041250;28;20970;-35
2023/10/03 09:09:14;;;;;;;15.82;7.72;;;22.60;54.10;;;;;;5038144;28;20068;-36
2023/10/03 09:11:43;;;;;;;15.68;8.02;;;22.60;54.20;;;;;;5038741;28;20064;-40
2023/10/03 09:14:19;;;;;;;16.85;7.97;;;22.60;54.20;;;;;;5041305;28;20052;-39
2023/10/03 09:16:50;;;;;;;14.20;7.35;;;22.70;54.30;;;;;;5040496;28;20064;-39
2023/10/03 09:19:23;;;;;;;16.08;7.93;;;22.70;54.30;;;;;;5039930;28;20061;-39
2023/10/03 09:21:51;;;;;;;20.52;8.35;;;22.70;54.20;;;;;;5038721;28;20049;-38
2023/10/03 09:24:22;;;;;;;15.73;6.80;;;22.70;54.10;;;;;;5038556;28;20052;-39
2023/10/03 09:26:52;;;;;;;16.48;7.88;;;22.70;54.10;;;;;;5038945;28;20049;-40
2023/10/03 09:29:29;;;;;;;23.95;7.93;;;22.70;54.10;;;;;;5040316;28;20055;-40
2023/10/03 09:31:58;;;;;;;15.30;7.18;;;22.70;54.10;;;;;;5039284;28;20065;-39
2023/10/03 09:34:30;;;;;;;16.13;7.38;;;22.80;54.10;;;;;;5040251;28;20508;-39
2023/10/03 09:37:02;;;;;;;14.50;7.47;;;22.80;54.10;;;;;;5041395;28;20060;-40
2023/10/03 09:39:39;;;;;;;16.02;7.57;;;22.80;54.10;;;;;;5041507;28;20053;-40
2023/10/03 09:42:15;;;;;;;15.93;7.15;;;22.80;54.20;;;;;;5040619;28;20053;-38
2023/10/03 09:44:44;;;;;;;17.55;6.93;;;22.70;54.30;;;;;;5037843;28;20505;-39
2023/10/03 09:47:13;;;;;;;13.90;7.30;;;22.80;54.30;;;;;;5040615;28;20057;-37
2023/10/03 09:49:41;;;;;;;14.27;6.80;;;22.80;54.50;;;;;;5039464;28;20052;-40
2023/10/03 09:52:17;;;;;;;16.30;7.38;;;22.80;54.60;;;;;;5039199;28;20051;-39
2023/10/03 09:54:45;;;;;;;15.18;7.13;;;22.80;54.70;;;;;;5039100;28;20060;-39
2023/10/03 09:57:16;;;;;;;13.93;7.10;;;22.80;54.70;;;;;;5040282;28;20057;-39
2023/10/03 09:59:46;;;;;;;14.18;7.38;;;22.80;54.70;;;;;;5037924;28;20064;-39
2023/10/03 10:02:15;;;;;;;14.43;6.82;;;22.90;54.70;;;;;;5037119;28;20061;-39
2023/10/03 10:04:46;;;;;;;14.85;7.10;;;22.90;54.70;;;;;;5039424;28;20057;-40
2023/10/03 10:07:29;;;;;;;18.20;7.43;;;22.90;54.70;;;;;;5039187;28;20061;-39
2023/10/03 10:10:07;;;;;;;18.85;7.72;;;22.90;54.60;;;;;;5039092;28;20052;-38
2023/10/03 10:12:37;;;;;;;14.82;6.40;;;22.90;54.50;;;;;;5036923;28;20512;-39
2023/10/03 10:15:15;;;;;;;13.90;6.95;;;23.00;54.60;;;;;;5038679;28;20053;-39
2023/10/03 10:17:45;;;;;;;13.60;7.03;;;23.00;54.50;;;;;;5038586;28;20060;-39
2023/10/03 10:20:13;;;;;;;16.02;7.15;;;23.00;54.50;;;;;;5036126;28;20053;-38
2023/10/03 10:23:17;;;;;;;14.07;7.10;;;23.00;54.40;;;;;;5039075;28;20057;-36
2023/10/03 10:25:57;;;;;;;13.95;6.50;;;23.00;54.40;;;;;;5038675;28;20520;-37
2023/10/03 10:28:27;;;;;;;15.32;6.97;;;23.00;54.30;;;;;;5037298;28;20053;-35
2023/10/03 10:31:24;;;;;;;16.48;6.95;;;23.00;54.30;;;;;;5037519;28;20096;-37
2023/10/03 10:34:30;;;;;;;12.02;5.70;;;23.00;54.30;;;;;;5039290;28;20044;-36
2023/10/03 10:37:01;;;;;;;14.02;6.03;;;23.00;54.30;;;;;;5040625;28;20059;-36
2023/10/03 10:40:09;;;;;;;14.40;6.47;;;23.00;54.80;;;;;;5039314;28;20071;-37
2023/10/03 10:43:16;;;;;;;12.13;5.47;;;23.00;54.30;;;;;;5036459;28;20531;-38
2023/10/03 10:45:50;;;;;;;9.52;5.40;;;23.00;54.30;;;;;;5037618;28;20057;-37
2023/10/03 10:48:18;;;;;;;12.68;5.57;;;23.00;54.30;;;;;;5039136;28;20053;-36
2023/10/03 10:51:13;;;;;;;10.82;5.38;;;23.00;54.30;;;;;;5037349;28;20064;-36
2023/10/03 10:53:43;;;;;;;13.30;5.95;;;23.00;54.40;;;;;;5037816;28;20052;-38
2023/10/03 10:56:12;;;;;;;11.20;5.25;;;23.00;54.50;;;;;;5039787;28;20175;-35
2023/10/03 10:58:47;;;;;;;11.80;6.07;;;23.00;54.50;;;;;;5039235;28;20082;-36
2023/10/03 11:01:16;;;;;;;11.70;5.57;;;23.00;54.50;;;;;;5037597;28;20045;-36
2023/10/03 11:03:44;;;;;;;12.30;5.70;;;23.00;54.60;;;;;;5037483;28;20409;-39
2023/10/03 11:06:16;;;;;;;18.60;6.88;;;23.00;54.60;;;;;;5038636;28;20071;-37
2023/10/03 11:08:47;;;;;;;11.25;6.07;;;23.00;54.70;;;;;;5040020;28;20053;-36
2023/10/03 11:11:15;;;;;;;11.75;6.28;;;23.00;54.70;;;;;;5036741;28;20053;-36
2023/10/03 11:13:47;;;;;;;11.82;5.90;;;23.10;54.80;;;;;;5037276;28;20504;-36
2023/10/03 11:16:26;;;;;;;13.15;5.80;;;23.10;54.90;;;;;;5037817;28;20067;-38
2023/10/03 11:18:56;;;;;;;12.63;6.00;;;23.10;54.90;;;;;;5038156;28;20061;-37
2023/10/03 11:21:24;;;;;;;11.35;5.88;;;23.10;55.00;;;;;;5036724;28;20059;-39
2023/10/03 11:24:14;;;;;;;15.20;6.35;;;23.10;55.10;;;;;;5037961;28;20053;-36
2023/10/03 11:26:49;;;;;;;12.15;6.05;;;23.10;55.50;;;;;;5039621;28;20489;-36
2023/10/03 11:29:35;;;;;;;15.85;6.57;;;23.10;55.50;;;;;;5037167;28;20056;-36
2023/10/03 11:32:05;;;;;;;14.30;6.80;;;23.10;55.80;;;;;;5039068;28;20057;-36
2023/10/03 11:34:35;;;;;;;16.10;6.40;;;23.10;55.80;;;;;;5037351;28;20056;-36
2023/10/03 11:37:04;;;;;;;10.20;5.63;;;23.10;56.00;;;;;;5033966;28;20056;-36
2023/10/03 11:39:38;;;;;;;12.68;6.03;;;23.00;56.10;;;;;;5038181;28;20049;-36
2023/10/03 11:42:10;;;;;;;12.83;5.70;;;23.00;56.40;;;;;;5038968;28;20052;-37
2023/10/03 11:44:37;;;;;;;9.45;4.85;;;22.90;56.30;;;;;;5037738;28;20072;-36
2023/10/03 11:47:06;;;;;;;10.80;4.40;;;22.90;56.30;;;;;;5038302;28;20041;-36
2023/10/03 11:49:33;;;;;;;11.60;3.80;;;22.90;56.30;;;;;;5036384;28;20049;-36
2023/10/03 11:52:01;;;;;;;7.68;3.67;;;22.80;56.30;;;;;;5037129;28;20068;-36
2023/10/03 11:54:28;;;;;;;6.53;3.35;;;22.80;56.50;;;;;;5036169;28;20409;-36
2023/10/03 11:56:57;;;;;;;6.03;3.42;;;22.70;56.60;;;;;;5038444;28;20045;-36
2023/10/03 11:59:25;;;;;;;6.32;3.22;;;22.60;56.60;;;;;;5038186;28;20072;-36
2023/10/03 12:01:56;;;;;;;7.60;3.92;;;22.60;56.80;;;;;;5036318;28;20049;-36
2023/10/03 12:04:25;;;;;;;8.52;4.00;;;22.60;57.00;;;;;;5037059;28;20056;-38
2023/10/03 12:06:53;;;;;;;8.98;3.47;;;22.50;57.20;;;;;;5037880;28;20413;-36
2023/10/03 12:09:23;;;;;;;9.10;3.97;;;22.50;57.30;;;;;;5035502;28;20053;-36
2023/10/03 12:11:50;;;;;;;10.43;4.00;;;22.50;57.50;;;;;;5034796;28;20068;-38
2023/10/03 12:14:17;;;;;;;11.90;4.45;;;22.40;57.70;;;;;;5036272;28;20509;-38
2023/10/03 12:16:51;;;;;;;6.50;2.95;;;22.40;62.00;;;;;;5036898;28;20052;-36
2023/10/03 12:19:19;;;;;;;7.38;2.50;;;22.20;64.60;;;;;;5040021;28;20656;-39
2023/10/03 12:21:48;;;;;;;5.95;2.28;;;21.90;63.40;;;;;;5040553;28;20484;-38
2023/10/03 12:24:15;;;;;;;5.57;2.75;;;21.50;63.10;;;;;;5039580;28;20052;-41
2023/10/03 12:26:43;;;;;;;9.43;3.05;;;21.20;63.00;;;;;;5040801;28;20440;-42
2023/10/03 12:29:10;;;;;;;6.07;3.33;;;20.80;63.70;;;;;;5040605;28;20501;-38
2023/10/03 12:31:37;;;;;;;12.45;4.15;;;20.60;64.60;;;;;;5038795;28;20052;-40
2023/10/03 12:34:05;;;;;;;9.13;3.78;;;20.30;65.50;;;;;;5040508;28;20058;-38
2023/10/03 12:36:32;;;;;;;9.10;3.78;;;20.10;66.50;;;;;;5037927;28;20045;-37
2023/10/03 12:39:10;;;;;;;8.40;4.40;;;20.00;67.60;;;;;;5038685;28;20413;-38
2023/10/03 12:41:38;;;;;;;9.40;4.55;;;19.80;68.70;;;;;;5038122;28;20564;-43
2023/10/03 12:44:05;;;;;;;10.32;4.05;;;19.70;69.80;;;;;;5041827;28;20063;-45
2023/10/03 12:46:32;;;;;;;11.25;4.50;;;19.60;70.60;;;;;;5040076;28;20053;-44
2023/10/03 12:49:00;;;;;;;13.05;4.95;;;19.50;70.80;;;;;;5042286;28;20049;-43